sensor_id;sensor_type;location;lat;lon;timestamp;P1;durP1;ratioP1;P2;durP2;ratioP2
75087;SDS011;63664;44.868;40.600;2023-02-28T00:01:22;20.02;;;8.82;;
75087;SDS011;63664;44.868;40.600;2023-02-28T00:03:49;16.52;;;8.70;;
75087;SDS011;63664;44.868;40.600;2023-02-28T00:06:15;14.68;;;8.55;;
75087;SDS011;63664;44.868;40.600;2023-02-28T00:08:42;19.08;;;8.60;;
75087;SDS011;63664;44.868;40.600;2023-02-28T00:11:11;16.52;;;8.27;;
75087;SDS011;63664;44.868;40.600;2023-02-28T00:13:44;22.15;;;10.45;;
75087;SDS011;63664;44.868;40.600;2023-02-28T00:16:19;18.52;;;9.52;;
75087;SDS011;63664;44.868;40.600;2023-02-28T00:18:47;19.05;;;9.35;;
75087;SDS011;63664;44.868;40.600;2023-02-28T00:21:16;17.50;;;9.18;;
75087;SDS011;63664;44.868;40.600;2023-02-28T00:23:46;19.95;;;9.45;;
75087;SDS011;63664;44.868;40.600;2023-02-28T00:26:13;24.52;;;10.65;;
75087;SDS011;63664;44.868;40.600;2023-02-28T00:28:43;22.65;;;11.57;;
75087;SDS011;63664;44.868;40.600;2023-02-28T00:31:10;21.23;;;10.82;;
75087;SDS011;63664;44.868;40.600;2023-02-28T00:33:38;21.90;;;11.10;;
75087;SDS011;63664;44.868;40.600;2023-02-28T00:36:06;22.35;;;12.05;;
75087;SDS011;63664;44.868;40.600;2023-02-28T00:38:35;27.80;;;11.77;;
75087;SDS011;63664;44.868;40.600;2023-02-28T00:41:05;18.48;;;10.82;;
75087;SDS011;63664;44.868;40.600;2023-02-28T00:43:33;19.45;;;10.50;;
75087;SDS011;63664;44.868;40.600;2023-02-28T00:46:01;18.75;;;10.55;;
75087;SDS011;63664;44.868;40.600;2023-02-28T00:48:27;20.88;;;10.90;;
75087;SDS011;63664;44.868;40.600;2023-02-28T00:50:54;17.92;;;9.82;;
75087;SDS011;63664;44.868;40.600;2023-02-28T00:53:22;15.65;;;9.95;;
75087;SDS011;63664;44.868;40.600;2023-02-28T00:55:51;20.00;;;10.38;;
75087;SDS011;63664;44.868;40.600;2023-02-28T00:58:17;20.65;;;8.27;;
75087;SDS011;63664;44.868;40.600;2023-02-28T01:00:44;13.73;;;7.57;;
75087;SDS011;63664;44.868;40.600;2023-02-28T01:03:18;14.27;;;6.90;;
75087;SDS011;63664;44.868;40.600;2023-02-28T01:05:46;18.92;;;8.00;;
75087;SDS011;63664;44.868;40.600;2023-02-28T01:08:12;15.23;;;6.90;;
75087;SDS011;63664;44.868;40.600;2023-02-28T01:10:40;13.95;;;7.32;;
75087;SDS011;63664;44.868;40.600;2023-02-28T01:13:06;17.15;;;8.77;;
75087;SDS011;63664;44.868;40.600;2023-02-28T01:15:36;16.67;;;10.50;;
75087;SDS011;63664;44.868;40.600;2023-02-28T01:18:12;16.77;;;10.45;;
75087;SDS011;63664;44.868;40.600;2023-02-28T01:20:38;16.23;;;8.88;;
75087;SDS011;63664;44.868;40.600;2023-02-28T01:23:05;12.55;;;8.73;;
75087;SDS011;63664;44.868;40.600;2023-02-28T01:25:35;17.20;;;9.07;;
75087;SDS011;63664;44.868;40.600;2023-02-28T01:30:33;24.17;;;9.48;;
75087;SDS011;63664;44.868;40.600;2023-02-28T01:33:00;17.92;;;9.98;;
75087;SDS011;63664;44.868;40.600;2023-02-28T01:35:36;17.13;;;10.98;;
75087;SDS011;63664;44.868;40.600;2023-02-28T01:38:02;17.33;;;9.32;;
75087;SDS011;63664;44.868;40.600;2023-02-28T01:40:29;18.52;;;9.90;;
75087;SDS011;63664;44.868;40.600;2023-02-28T01:42:55;17.88;;;9.55;;
75087;SDS011;63664;44.868;40.600;2023-02-28T01:45:28;16.75;;;8.32;;
75087;SDS011;63664;44.868;40.600;2023-02-28T01:48:00;17.38;;;8.73;;
75087;SDS011;63664;44.868;40.600;2023-02-28T01:50:34;13.98;;;7.38;;
75087;SDS011;63664;44.868;40.600;2023-02-28T01:53:05;13.90;;;7.03;;
75087;SDS011;63664;44.868;40.600;2023-02-28T01:55:40;15.05;;;7.53;;
75087;SDS011;63664;44.868;40.600;2023-02-28T01:58:19;11.65;;;7.47;;
75087;SDS011;63664;44.868;40.600;2023-02-28T02:00:46;10.35;;;7.13;;
75087;SDS011;63664;44.868;40.600;2023-02-28T02:03:14;12.90;;;7.82;;
75087;SDS011;63664;44.868;40.600;2023-02-28T02:05:47;11.57;;;6.35;;
75087;SDS011;63664;44.868;40.600;2023-02-28T02:08:15;10.00;;;7.13;;
75087;SDS011;63664;44.868;40.600;2023-02-28T02:10:57;15.90;;;7.93;;
75087;SDS011;63664;44.868;40.600;2023-02-28T02:13:46;13.27;;;8.30;;
75087;SDS011;63664;44.868;40.600;2023-02-28T02:16:28;18.35;;;9.27;;
75087;SDS011;63664;44.868;40.600;2023-02-28T02:22:18;13.25;;;8.25;;
75087;SDS011;63664;44.868;40.600;2023-02-28T02:28:17;13.73;;;7.88;;
75087;SDS011;63664;44.868;40.600;2023-02-28T02:36:35;17.52;;;9.13;;
75087;SDS011;63664;44.868;40.600;2023-02-28T02:39:14;17.45;;;9.27;;
75087;SDS011;63664;44.868;40.600;2023-02-28T02:42:01;15.52;;;7.90;;
75087;SDS011;63664;44.868;40.600;2023-02-28T02:44:40;12.63;;;7.20;;
75087;SDS011;63664;44.868;40.600;2023-02-28T02:47:13;8.38;;;5.53;;
75087;SDS011;63664;44.868;40.600;2023-02-28T02:49:47;13.80;;;5.80;;
75087;SDS011;63664;44.868;40.600;2023-02-28T02:52:21;20.48;;;7.38;;
75087;SDS011;63664;44.868;40.600;2023-02-28T02:54:56;11.52;;;5.65;;
75087;SDS011;63664;44.868;40.600;2023-02-28T02:57:29;11.95;;;5.63;;
75087;SDS011;63664;44.868;40.600;2023-02-28T03:00:03;7.55;;;5.25;;
75087;SDS011;63664;44.868;40.600;2023-02-28T03:02:34;13.55;;;6.47;;
75087;SDS011;63664;44.868;40.600;2023-02-28T03:05:04;15.70;;;6.00;;
75087;SDS011;63664;44.868;40.600;2023-02-28T03:07:47;10.45;;;6.05;;
75087;SDS011;63664;44.868;40.600;2023-02-28T03:10:32;12.73;;;5.90;;
75087;SDS011;63664;44.868;40.600;2023-02-28T03:13:11;10.57;;;5.55;;
75087;SDS011;63664;44.868;40.600;2023-02-28T03:21:43;9.77;;;5.50;;
75087;SDS011;63664;44.868;40.600;2023-02-28T03:27:09;14.10;;;5.40;;
75087;SDS011;63664;44.868;40.600;2023-02-28T03:29:51;13.57;;;6.00;;
75087;SDS011;63664;44.868;40.600;2023-02-28T03:32:37;12.23;;;5.95;;
75087;SDS011;63664;44.868;40.600;2023-02-28T03:35:10;12.00;;;5.78;;
75087;SDS011;63664;44.868;40.600;2023-02-28T03:37:47;11.60;;;5.32;;
75087;SDS011;63664;44.868;40.600;2023-02-28T03:40:27;14.18;;;5.35;;
75087;SDS011;63664;44.868;40.600;2023-02-28T03:42:59;12.77;;;5.38;;
75087;SDS011;63664;44.868;40.600;2023-02-28T03:45:34;13.35;;;5.57;;
75087;SDS011;63664;44.868;40.600;2023-02-28T03:48:08;14.68;;;5.85;;
75087;SDS011;63664;44.868;40.600;2023-02-28T03:50:52;9.43;;;5.45;;
75087;SDS011;63664;44.868;40.600;2023-02-28T03:56:15;14.38;;;5.72;;
75087;SDS011;63664;44.868;40.600;2023-02-28T04:01:45;10.18;;;4.97;;
75087;SDS011;63664;44.868;40.600;2023-02-28T04:04:14;13.60;;;5.78;;
75087;SDS011;63664;44.868;40.600;2023-02-28T04:06:41;13.07;;;5.15;;
75087;SDS011;63664;44.868;40.600;2023-02-28T04:09:10;10.63;;;4.93;;
75087;SDS011;63664;44.868;40.600;2023-02-28T04:11:44;9.32;;;5.07;;
75087;SDS011;63664;44.868;40.600;2023-02-28T04:14:14;14.90;;;5.53;;
75087;SDS011;63664;44.868;40.600;2023-02-28T04:16:41;11.35;;;5.60;;
75087;SDS011;63664;44.868;40.600;2023-02-28T04:19:08;8.82;;;5.50;;
75087;SDS011;63664;44.868;40.600;2023-02-28T04:21:43;13.30;;;4.53;;
75087;SDS011;63664;44.868;40.600;2023-02-28T04:24:15;8.55;;;4.57;;
75087;SDS011;63664;44.868;40.600;2023-02-28T04:26:48;9.50;;;5.15;;
75087;SDS011;63664;44.868;40.600;2023-02-28T04:29:24;13.43;;;4.22;;
75087;SDS011;63664;44.868;40.600;2023-02-28T04:31:53;12.63;;;4.38;;
75087;SDS011;63664;44.868;40.600;2023-02-28T04:34:20;12.68;;;4.00;;
75087;SDS011;63664;44.868;40.600;2023-02-28T04:36:47;7.53;;;4.15;;
75087;SDS011;63664;44.868;40.600;2023-02-28T04:39:19;7.60;;;3.70;;
75087;SDS011;63664;44.868;40.600;2023-02-28T04:41:47;13.68;;;4.38;;
75087;SDS011;63664;44.868;40.600;2023-02-28T04:44:13;9.85;;;3.75;;
75087;SDS011;63664;44.868;40.600;2023-02-28T04:46:42;8.55;;;3.72;;
75087;SDS011;63664;44.868;40.600;2023-02-28T04:49:11;7.57;;;3.72;;
75087;SDS011;63664;44.868;40.600;2023-02-28T04:54:05;8.05;;;3.72;;
75087;SDS011;63664;44.868;40.600;2023-02-28T04:56:32;9.65;;;4.20;;
75087;SDS011;63664;44.868;40.600;2023-02-28T04:58:59;10.55;;;5.57;;
75087;SDS011;63664;44.868;40.600;2023-02-28T05:03:54;23.02;;;12.23;;
75087;SDS011;63664;44.868;40.600;2023-02-28T05:06:23;25.25;;;13.60;;
75087;SDS011;63664;44.868;40.600;2023-02-28T05:08:53;30.50;;;17.70;;
75087;SDS011;63664;44.868;40.600;2023-02-28T05:11:21;28.92;;;19.05;;
75087;SDS011;63664;44.868;40.600;2023-02-28T05:13:51;33.60;;;19.83;;
75087;SDS011;63664;44.868;40.600;2023-02-28T05:16:19;31.02;;;19.88;;
75087;SDS011;63664;44.868;40.600;2023-02-28T05:18:46;27.80;;;16.45;;
75087;SDS011;63664;44.868;40.600;2023-02-28T05:21:24;28.15;;;16.58;;
75087;SDS011;63664;44.868;40.600;2023-02-28T05:23:58;26.02;;;14.25;;
75087;SDS011;63664;44.868;40.600;2023-02-28T05:26:27;21.55;;;13.05;;
75087;SDS011;63664;44.868;40.600;2023-02-28T05:28:54;22.92;;;9.02;;
75087;SDS011;63664;44.868;40.600;2023-02-28T05:31:22;26.83;;;12.88;;
75087;SDS011;63664;44.868;40.600;2023-02-28T05:33:48;24.70;;;10.27;;
75087;SDS011;63664;44.868;40.600;2023-02-28T05:36:14;17.25;;;9.40;;
75087;SDS011;63664;44.868;40.600;2023-02-28T05:38:40;28.85;;;9.85;;
75087;SDS011;63664;44.868;40.600;2023-02-28T05:41:11;17.35;;;9.63;;
75087;SDS011;63664;44.868;40.600;2023-02-28T05:43:37;16.50;;;6.75;;
75087;SDS011;63664;44.868;40.600;2023-02-28T05:46:05;16.80;;;7.28;;
75087;SDS011;63664;44.868;40.600;2023-02-28T05:48:33;15.50;;;7.60;;
75087;SDS011;63664;44.868;40.600;2023-02-28T05:51:01;13.85;;;5.88;;
75087;SDS011;63664;44.868;40.600;2023-02-28T05:53:30;15.15;;;4.95;;
75087;SDS011;63664;44.868;40.600;2023-02-28T05:56:00;10.73;;;5.15;;
75087;SDS011;63664;44.868;40.600;2023-02-28T05:58:29;13.20;;;4.22;;
75087;SDS011;63664;44.868;40.600;2023-02-28T06:00:59;12.55;;;3.92;;
75087;SDS011;63664;44.868;40.600;2023-02-28T06:03:45;8.90;;;3.20;;
75087;SDS011;63664;44.868;40.600;2023-02-28T06:06:12;7.18;;;3.50;;
75087;SDS011;63664;44.868;40.600;2023-02-28T06:08:40;11.43;;;5.38;;
75087;SDS011;63664;44.868;40.600;2023-02-28T06:11:09;16.67;;;5.85;;
75087;SDS011;63664;44.868;40.600;2023-02-28T06:13:35;20.88;;;6.95;;
75087;SDS011;63664;44.868;40.600;2023-02-28T06:16:04;19.80;;;6.90;;
75087;SDS011;63664;44.868;40.600;2023-02-28T06:18:31;19.35;;;5.57;;
75087;SDS011;63664;44.868;40.600;2023-02-28T06:21:00;16.35;;;6.28;;
75087;SDS011;63664;44.868;40.600;2023-02-28T06:23:31;14.43;;;5.82;;
75087;SDS011;63664;44.868;40.600;2023-02-28T06:25:57;12.13;;;4.70;;
75087;SDS011;63664;44.868;40.600;2023-02-28T06:28:26;18.05;;;5.65;;
75087;SDS011;63664;44.868;40.600;2023-02-28T06:30:52;8.25;;;3.90;;
75087;SDS011;63664;44.868;40.600;2023-02-28T06:33:18;11.05;;;4.45;;
75087;SDS011;63664;44.868;40.600;2023-02-28T06:35:49;12.07;;;5.00;;
75087;SDS011;63664;44.868;40.600;2023-02-28T06:38:16;15.98;;;4.80;;
75087;SDS011;63664;44.868;40.600;2023-02-28T06:40:43;11.88;;;4.85;;
75087;SDS011;63664;44.868;40.600;2023-02-28T06:43:10;9.98;;;4.68;;
75087;SDS011;63664;44.868;40.600;2023-02-28T06:45:41;8.00;;;4.30;;
75087;SDS011;63664;44.868;40.600;2023-02-28T06:48:14;10.13;;;4.55;;
75087;SDS011;63664;44.868;40.600;2023-02-28T06:50:44;10.25;;;4.40;;
75087;SDS011;63664;44.868;40.600;2023-02-28T06:53:15;16.52;;;4.97;;
75087;SDS011;63664;44.868;40.600;2023-02-28T06:55:42;10.70;;;4.50;;
75087;SDS011;63664;44.868;40.600;2023-02-28T06:58:08;10.18;;;4.63;;
75087;SDS011;63664;44.868;40.600;2023-02-28T07:00:49;11.25;;;4.53;;
75087;SDS011;63664;44.868;40.600;2023-02-28T07:03:20;16.00;;;4.60;;
75087;SDS011;63664;44.868;40.600;2023-02-28T07:05:49;11.48;;;4.35;;
75087;SDS011;63664;44.868;40.600;2023-02-28T07:08:27;9.38;;;4.95;;
75087;SDS011;63664;44.868;40.600;2023-02-28T07:10:57;12.55;;;4.88;;
75087;SDS011;63664;44.868;40.600;2023-02-28T07:13:23;12.95;;;6.05;;
75087;SDS011;63664;44.868;40.600;2023-02-28T07:15:56;19.73;;;5.82;;
75087;SDS011;63664;44.868;40.600;2023-02-28T07:18:28;14.27;;;5.32;;
75087;SDS011;63664;44.868;40.600;2023-02-28T07:20:57;12.68;;;5.05;;
75087;SDS011;63664;44.868;40.600;2023-02-28T07:23:24;15.07;;;5.47;;
75087;SDS011;63664;44.868;40.600;2023-02-28T07:25:50;19.73;;;6.47;;
75087;SDS011;63664;44.868;40.600;2023-02-28T07:28:19;10.38;;;5.03;;
75087;SDS011;63664;44.868;40.600;2023-02-28T07:30:48;9.27;;;4.88;;
75087;SDS011;63664;44.868;40.600;2023-02-28T07:33:14;12.52;;;6.60;;
75087;SDS011;63664;44.868;40.600;2023-02-28T07:35:43;15.18;;;5.35;;
75087;SDS011;63664;44.868;40.600;2023-02-28T07:38:12;20.40;;;6.18;;
75087;SDS011;63664;44.868;40.600;2023-02-28T07:40:39;11.40;;;5.03;;
75087;SDS011;63664;44.868;40.600;2023-02-28T07:43:08;12.25;;;5.18;;
75087;SDS011;63664;44.868;40.600;2023-02-28T07:45:37;14.75;;;4.70;;
75087;SDS011;63664;44.868;40.600;2023-02-28T07:48:03;18.95;;;5.55;;
75087;SDS011;63664;44.868;40.600;2023-02-28T07:50:35;14.00;;;5.10;;
75087;SDS011;63664;44.868;40.600;2023-02-28T07:53:04;13.43;;;5.75;;
75087;SDS011;63664;44.868;40.600;2023-02-28T07:55:36;10.70;;;5.28;;
75087;SDS011;63664;44.868;40.600;2023-02-28T07:58:05;7.45;;;4.93;;
75087;SDS011;63664;44.868;40.600;2023-02-28T08:00:31;13.65;;;5.47;;
75087;SDS011;63664;44.868;40.600;2023-02-28T08:03:00;14.32;;;5.47;;
75087;SDS011;63664;44.868;40.600;2023-02-28T08:05:26;19.17;;;5.82;;
75087;SDS011;63664;44.868;40.600;2023-02-28T08:07:56;12.77;;;5.10;;
75087;SDS011;63664;44.868;40.600;2023-02-28T08:10:23;8.27;;;4.20;;
75087;SDS011;63664;44.868;40.600;2023-02-28T08:12:52;6.13;;;3.80;;
75087;SDS011;63664;44.868;40.600;2023-02-28T08:15:23;11.55;;;3.85;;
75087;SDS011;63664;44.868;40.600;2023-02-28T08:17:49;7.43;;;4.10;;
75087;SDS011;63664;44.868;40.600;2023-02-28T08:20:20;7.28;;;3.95;;
75087;SDS011;63664;44.868;40.600;2023-02-28T08:22:48;8.82;;;4.13;;
75087;SDS011;63664;44.868;40.600;2023-02-28T08:25:19;11.55;;;4.72;;
75087;SDS011;63664;44.868;40.600;2023-02-28T08:27:50;6.50;;;3.92;;
75087;SDS011;63664;44.868;40.600;2023-02-28T08:30:17;9.10;;;4.85;;
75087;SDS011;63664;44.868;40.600;2023-02-28T08:32:46;8.82;;;4.95;;
75087;SDS011;63664;44.868;40.600;2023-02-28T08:35:12;10.98;;;4.90;;
75087;SDS011;63664;44.868;40.600;2023-02-28T08:37:44;10.05;;;4.80;;
75087;SDS011;63664;44.868;40.600;2023-02-28T08:40:12;12.35;;;6.07;;
75087;SDS011;63664;44.868;40.600;2023-02-28T08:42:47;10.13;;;5.10;;
75087;SDS011;63664;44.868;40.600;2023-02-28T08:47:40;13.15;;;4.97;;
75087;SDS011;63664;44.868;40.600;2023-02-28T08:50:07;12.90;;;4.38;;
75087;SDS011;63664;44.868;40.600;2023-02-28T08:52:36;7.72;;;4.18;;
75087;SDS011;63664;44.868;40.600;2023-02-28T08:55:04;13.85;;;4.75;;
75087;SDS011;63664;44.868;40.600;2023-02-28T08:57:33;13.50;;;4.90;;
75087;SDS011;63664;44.868;40.600;2023-02-28T08:59:59;9.32;;;5.45;;
75087;SDS011;63664;44.868;40.600;2023-02-28T09:02:30;10.95;;;4.10;;
75087;SDS011;63664;44.868;40.600;2023-02-28T09:04:57;8.85;;;4.10;;
75087;SDS011;63664;44.868;40.600;2023-02-28T09:07:26;9.15;;;4.00;;
75087;SDS011;63664;44.868;40.600;2023-02-28T09:09:53;6.88;;;3.90;;
75087;SDS011;63664;44.868;40.600;2023-02-28T09:12:24;5.82;;;3.90;;
75087;SDS011;63664;44.868;40.600;2023-02-28T09:14:53;9.50;;;4.18;;
75087;SDS011;63664;44.868;40.600;2023-02-28T09:17:22;9.73;;;4.60;;
75087;SDS011;63664;44.868;40.600;2023-02-28T09:19:48;8.50;;;4.03;;
75087;SDS011;63664;44.868;40.600;2023-02-28T09:22:20;7.65;;;4.10;;
75087;SDS011;63664;44.868;40.600;2023-02-28T09:24:51;6.63;;;4.25;;
75087;SDS011;63664;44.868;40.600;2023-02-28T09:27:17;7.57;;;4.20;;
75087;SDS011;63664;44.868;40.600;2023-02-28T09:29:46;12.30;;;5.63;;
75087;SDS011;63664;44.868;40.600;2023-02-28T09:32:15;9.75;;;4.22;;
75087;SDS011;63664;44.868;40.600;2023-02-28T09:34:45;8.93;;;4.00;;
75087;SDS011;63664;44.868;40.600;2023-02-28T09:37:14;9.85;;;4.43;;
75087;SDS011;63664;44.868;40.600;2023-02-28T09:39:43;13.90;;;4.57;;
75087;SDS011;63664;44.868;40.600;2023-02-28T09:42:18;6.90;;;3.80;;
75087;SDS011;63664;44.868;40.600;2023-02-28T09:44:51;13.13;;;4.43;;
75087;SDS011;63664;44.868;40.600;2023-02-28T09:47:29;8.43;;;4.10;;
75087;SDS011;63664;44.868;40.600;2023-02-28T09:50:20;11.73;;;4.85;;
75087;SDS011;63664;44.868;40.600;2023-02-28T09:55:58;28.25;;;6.25;;
75087;SDS011;63664;44.868;40.600;2023-02-28T09:58:47;12.50;;;4.93;;
75087;SDS011;63664;44.868;40.600;2023-02-28T10:01:26;11.35;;;4.72;;
75087;SDS011;63664;44.868;40.600;2023-02-28T10:04:05;11.02;;;4.57;;
75087;SDS011;63664;44.868;40.600;2023-02-28T10:07:10;11.50;;;4.93;;
75087;SDS011;63664;44.868;40.600;2023-02-28T10:09:35;16.48;;;4.60;;
75087;SDS011;63664;44.868;40.600;2023-02-28T10:12:05;11.77;;;4.68;;
75087;SDS011;63664;44.868;40.600;2023-02-28T10:14:35;9.40;;;4.55;;
75087;SDS011;63664;44.868;40.600;2023-02-28T10:22:59;10.68;;;4.45;;
75087;SDS011;63664;44.868;40.600;2023-02-28T10:25:36;17.75;;;5.47;;
75087;SDS011;63664;44.868;40.600;2023-02-28T10:28:13;10.43;;;4.55;;
75087;SDS011;63664;44.868;40.600;2023-02-28T10:30:46;7.57;;;4.53;;
75087;SDS011;63664;44.868;40.600;2023-02-28T10:35:56;10.38;;;4.47;;
75087;SDS011;63664;44.868;40.600;2023-02-28T10:38:24;12.25;;;5.13;;
75087;SDS011;63664;44.868;40.600;2023-02-28T10:41:05;9.20;;;4.95;;
75087;SDS011;63664;44.868;40.600;2023-02-28T10:43:38;7.15;;;4.68;;
75087;SDS011;63664;44.868;40.600;2023-02-28T10:48:43;10.18;;;4.32;;
75087;SDS011;63664;44.868;40.600;2023-02-28T10:51:18;9.48;;;4.55;;
75087;SDS011;63664;44.868;40.600;2023-02-28T10:56:23;7.40;;;3.92;;
75087;SDS011;63664;44.868;40.600;2023-02-28T10:58:55;8.27;;;4.55;;
75087;SDS011;63664;44.868;40.600;2023-02-28T11:01:41;13.00;;;4.72;;
75087;SDS011;63664;44.868;40.600;2023-02-28T11:06:59;8.27;;;4.55;;
75087;SDS011;63664;44.868;40.600;2023-02-28T11:09:35;8.32;;;4.85;;
75087;SDS011;63664;44.868;40.600;2023-02-28T11:12:18;12.25;;;4.28;;
75087;SDS011;63664;44.868;40.600;2023-02-28T11:14:50;21.17;;;6.30;;
75087;SDS011;63664;44.868;40.600;2023-02-28T11:17:31;11.90;;;4.65;;
75087;SDS011;63664;44.868;40.600;2023-02-28T11:19:59;13.45;;;5.32;;
75087;SDS011;63664;44.868;40.600;2023-02-28T11:22:31;10.75;;;4.97;;
75087;SDS011;63664;44.868;40.600;2023-02-28T11:25:37;8.95;;;4.40;;
75087;SDS011;63664;44.868;40.600;2023-02-28T11:28:01;35.00;;;7.55;;
75087;SDS011;63664;44.868;40.600;2023-02-28T11:30:40;9.25;;;4.85;;
75087;SDS011;63664;44.868;40.600;2023-02-28T11:33:26;9.30;;;3.97;;
75087;SDS011;63664;44.868;40.600;2023-02-28T11:36:04;9.15;;;4.35;;
75087;SDS011;63664;44.868;40.600;2023-02-28T11:38:37;12.88;;;4.32;;
75087;SDS011;63664;44.868;40.600;2023-02-28T11:41:16;11.80;;;4.57;;
75087;SDS011;63664;44.868;40.600;2023-02-28T11:46:35;23.50;;;5.95;;
75087;SDS011;63664;44.868;40.600;2023-02-28T11:49:13;15.32;;;6.28;;
75087;SDS011;63664;44.868;40.600;2023-02-28T11:58:04;12.95;;;6.18;;
75087;SDS011;63664;44.868;40.600;2023-02-28T12:03:31;9.48;;;4.35;;
75087;SDS011;63664;44.868;40.600;2023-02-28T12:22:48;14.02;;;6.18;;
75087;SDS011;63664;44.868;40.600;2023-02-28T12:25:36;11.95;;;5.68;;
75087;SDS011;63664;44.868;40.600;2023-02-28T12:28:23;13.25;;;6.10;;
75087;SDS011;63664;44.868;40.600;2023-02-28T12:33:28;12.32;;;5.93;;
75087;SDS011;63664;44.868;40.600;2023-02-28T12:36:10;8.55;;;4.68;;
75087;SDS011;63664;44.868;40.600;2023-02-28T12:38:48;13.38;;;6.80;;
75087;SDS011;63664;44.868;40.600;2023-02-28T12:44:17;21.58;;;8.68;;
75087;SDS011;63664;44.868;40.600;2023-02-28T12:47:15;22.20;;;7.82;;
75087;SDS011;63664;44.868;40.600;2023-02-28T12:49:49;12.65;;;5.68;;
75087;SDS011;63664;44.868;40.600;2023-02-28T12:55:25;11.40;;;5.55;;
75087;SDS011;63664;44.868;40.600;2023-02-28T13:06:35;21.92;;;10.82;;
75087;SDS011;63664;44.868;40.600;2023-02-28T13:09:08;14.55;;;7.40;;
75087;SDS011;63664;44.868;40.600;2023-02-28T13:11:45;20.50;;;9.02;;
75087;SDS011;63664;44.868;40.600;2023-02-28T13:14:24;16.23;;;7.75;;
75087;SDS011;63664;44.868;40.600;2023-02-28T13:19:40;12.55;;;7.38;;
75087;SDS011;63664;44.868;40.600;2023-02-28T13:22:17;16.75;;;7.40;;
75087;SDS011;63664;44.868;40.600;2023-02-28T13:27:33;18.27;;;8.50;;
75087;SDS011;63664;44.868;40.600;2023-02-28T13:36:28;21.85;;;10.50;;
75087;SDS011;63664;44.868;40.600;2023-02-28T13:39:00;19.25;;;10.45;;
75087;SDS011;63664;44.868;40.600;2023-02-28T13:41:47;18.25;;;9.40;;
75087;SDS011;63664;44.868;40.600;2023-02-28T13:44:19;22.88;;;11.15;;
75087;SDS011;63664;44.868;40.600;2023-02-28T13:49:27;24.13;;;10.95;;
75087;SDS011;63664;44.868;40.600;2023-02-28T13:55:16;24.55;;;11.25;;
75087;SDS011;63664;44.868;40.600;2023-02-28T14:05:27;18.08;;;10.38;;
75087;SDS011;63664;44.868;40.600;2023-02-28T14:08:03;22.50;;;10.18;;
75087;SDS011;63664;44.868;40.600;2023-02-28T14:10:39;22.33;;;11.45;;
75087;SDS011;63664;44.868;40.600;2023-02-28T14:13:12;19.73;;;9.15;;
75087;SDS011;63664;44.868;40.600;2023-02-28T14:16:00;14.13;;;7.70;;
75087;SDS011;63664;44.868;40.600;2023-02-28T14:23:45;18.67;;;9.43;;
75087;SDS011;63664;44.868;40.600;2023-02-28T14:32:30;21.10;;;8.52;;
75087;SDS011;63664;44.868;40.600;2023-02-28T14:37:45;20.77;;;8.10;;
75087;SDS011;63664;44.868;40.600;2023-02-28T14:40:14;13.45;;;8.00;;
75087;SDS011;63664;44.868;40.600;2023-02-28T14:42:49;19.50;;;9.00;;
75087;SDS011;63664;44.868;40.600;2023-02-28T14:45:25;19.35;;;7.78;;
75087;SDS011;63664;44.868;40.600;2023-02-28T14:47:59;17.52;;;8.50;;
75087;SDS011;63664;44.868;40.600;2023-02-28T14:50:30;16.85;;;8.25;;
75087;SDS011;63664;44.868;40.600;2023-02-28T14:53:02;27.77;;;11.57;;
75087;SDS011;63664;44.868;40.600;2023-02-28T14:55:33;22.70;;;8.68;;
75087;SDS011;63664;44.868;40.600;2023-02-28T14:58:02;20.73;;;9.82;;
75087;SDS011;63664;44.868;40.600;2023-02-28T15:00:35;20.17;;;9.00;;
75087;SDS011;63664;44.868;40.600;2023-02-28T15:03:23;17.60;;;9.13;;
75087;SDS011;63664;44.868;40.600;2023-02-28T15:05:59;22.45;;;7.95;;
75087;SDS011;63664;44.868;40.600;2023-02-28T15:08:28;19.45;;;7.65;;
75087;SDS011;63664;44.868;40.600;2023-02-28T15:11:00;19.73;;;8.45;;
75087;SDS011;63664;44.868;40.600;2023-02-28T15:13:36;14.68;;;7.93;;
75087;SDS011;63664;44.868;40.600;2023-02-28T15:16:12;19.13;;;8.55;;
75087;SDS011;63664;44.868;40.600;2023-02-28T15:18:54;10.27;;;6.60;;
75087;SDS011;63664;44.868;40.600;2023-02-28T15:24:10;23.02;;;7.15;;
75087;SDS011;63664;44.868;40.600;2023-02-28T15:26:58;12.43;;;6.88;;
75087;SDS011;63664;44.868;40.600;2023-02-28T15:29:30;21.58;;;7.93;;
75087;SDS011;63664;44.868;40.600;2023-02-28T15:32:04;13.98;;;7.22;;
75087;SDS011;63664;44.868;40.600;2023-02-28T15:34:43;10.70;;;6.18;;
75087;SDS011;63664;44.868;40.600;2023-02-28T15:43:04;13.80;;;6.95;;
75087;SDS011;63664;44.868;40.600;2023-02-28T15:45:33;12.50;;;6.57;;
75087;SDS011;63664;44.868;40.600;2023-02-28T15:48:23;12.35;;;6.28;;
75087;SDS011;63664;44.868;40.600;2023-02-28T15:50:57;15.45;;;6.50;;
75087;SDS011;63664;44.868;40.600;2023-02-28T15:53:28;21.00;;;7.13;;
75087;SDS011;63664;44.868;40.600;2023-02-28T15:56:15;17.27;;;8.30;;
75087;SDS011;63664;44.868;40.600;2023-02-28T15:58:58;13.02;;;6.45;;
75087;SDS011;63664;44.868;40.600;2023-02-28T16:01:28;15.30;;;6.50;;
75087;SDS011;63664;44.868;40.600;2023-02-28T16:04:00;16.98;;;6.95;;
75087;SDS011;63664;44.868;40.600;2023-02-28T16:06:40;12.48;;;6.65;;
75087;SDS011;63664;44.868;40.600;2023-02-28T16:09:14;12.23;;;7.75;;
75087;SDS011;63664;44.868;40.600;2023-02-28T16:11:50;18.45;;;7.85;;
75087;SDS011;63664;44.868;40.600;2023-02-28T16:14:23;17.88;;;7.53;;
75087;SDS011;63664;44.868;40.600;2023-02-28T16:16:54;18.80;;;9.13;;
75087;SDS011;63664;44.868;40.600;2023-02-28T16:19:22;17.42;;;8.52;;
75087;SDS011;63664;44.868;40.600;2023-02-28T16:21:52;15.05;;;8.32;;
75087;SDS011;63664;44.868;40.600;2023-02-28T16:24:18;17.02;;;9.00;;
75087;SDS011;63664;44.868;40.600;2023-02-28T16:26:47;17.65;;;8.75;;
75087;SDS011;63664;44.868;40.600;2023-02-28T16:29:23;17.00;;;8.23;;
75087;SDS011;63664;44.868;40.600;2023-02-28T16:31:55;20.13;;;9.48;;
75087;SDS011;63664;44.868;40.600;2023-02-28T16:34:24;16.63;;;9.10;;
75087;SDS011;63664;44.868;40.600;2023-02-28T16:36:55;20.45;;;10.95;;
75087;SDS011;63664;44.868;40.600;2023-02-28T16:39:21;19.05;;;9.27;;
75087;SDS011;63664;44.868;40.600;2023-02-28T16:41:50;17.77;;;8.70;;
75087;SDS011;63664;44.868;40.600;2023-02-28T16:44:29;16.85;;;9.18;;
75087;SDS011;63664;44.868;40.600;2023-02-28T16:47:03;16.95;;;8.77;;
75087;SDS011;63664;44.868;40.600;2023-02-28T16:49:30;19.77;;;9.25;;
75087;SDS011;63664;44.868;40.600;2023-02-28T16:51:56;23.25;;;9.90;;
75087;SDS011;63664;44.868;40.600;2023-02-28T16:54:23;17.65;;;9.65;;
75087;SDS011;63664;44.868;40.600;2023-02-28T16:56:52;23.65;;;9.88;;
75087;SDS011;63664;44.868;40.600;2023-02-28T16:59:21;25.52;;;10.93;;
75087;SDS011;63664;44.868;40.600;2023-02-28T17:01:50;27.55;;;12.27;;
75087;SDS011;63664;44.868;40.600;2023-02-28T17:04:22;27.38;;;12.00;;
75087;SDS011;63664;44.868;40.600;2023-02-28T17:06:49;26.42;;;12.80;;
75087;SDS011;63664;44.868;40.600;2023-02-28T17:09:17;30.70;;;13.55;;
75087;SDS011;63664;44.868;40.600;2023-02-28T17:11:46;30.80;;;14.50;;
75087;SDS011;63664;44.868;40.600;2023-02-28T17:14:17;30.55;;;13.82;;
75087;SDS011;63664;44.868;40.600;2023-02-28T17:16:46;30.08;;;13.38;;
75087;SDS011;63664;44.868;40.600;2023-02-28T17:19:15;35.08;;;14.95;;